createdAt,value
2023-01-29T00:00:18.818Z,90.49
2023-01-29T00:02:53.454Z,90.53
2023-01-29T00:05:27.823Z,90.71
2023-01-29T00:07:58.491Z,90.93
2023-01-29T00:10:27.538Z,90.97
2023-01-29T00:12:55.843Z,90.77
2023-01-29T00:15:24.113Z,90.57
2023-01-29T00:17:52.440Z,90.79
2023-01-29T00:20:20.728Z,90.74
2023-01-29T00:22:49.157Z,90.89
2023-01-29T00:25:25.006Z,91.03
2023-01-29T00:27:53.697Z,91.08
2023-01-29T00:30:22.848Z,91.20
2023-01-29T00:32:51.892Z,91.29
2023-01-29T00:35:20.188Z,91.07
2023-01-29T00:37:48.319Z,91.17
2023-01-29T00:40:17.049Z,91.57
2023-01-29T00:43:04.774Z,91.44
2023-01-29T00:45:33.514Z,91.39
2023-01-29T00:48:01.946Z,91.37
2023-01-29T00:50:30.610Z,91.42
2023-01-29T00:52:59.126Z,91.16
2023-01-29T00:55:27.738Z,91.14
2023-01-29T00:57:57.588Z,90.83
2023-01-29T01:00:26.117Z,90.87
2023-01-29T01:03:11.135Z,90.70
2023-01-29T01:05:39.726Z,90.72
2023-01-29T01:08:28.820Z,90.42
2023-01-29T01:11:00.260Z,90.44
2023-01-29T01:13:29.906Z,90.47
2023-01-29T01:15:58.677Z,90.43
2023-01-29T01:18:27.147Z,90.06
2023-01-29T01:20:59.836Z,90.01
2023-01-29T01:23:28.345Z,89.51
2023-01-29T01:25:56.636Z,89.12
2023-01-29T01:28:25.083Z,88.94
2023-01-29T01:30:54.822Z,89.11
2023-01-29T01:33:23.062Z,88.97
2023-01-29T01:35:51.211Z,89.54
2023-01-29T01:38:19.354Z,89.76
2023-01-29T01:40:47.854Z,89.75
2023-01-29T01:43:16.032Z,89.51
2023-01-29T01:45:46.751Z,89.79
2023-01-29T01:48:21.589Z,90.21
2023-01-29T01:50:52.749Z,89.97
2023-01-29T01:53:25.173Z,89.98
2023-01-29T01:55:58.936Z,89.95
2023-01-29T01:58:31.919Z,89.88
2023-01-29T02:01:16.911Z,89.84
2023-01-29T02:04:09.204Z,89.57
2023-01-29T02:06:57.956Z,89.53
2023-01-29T02:09:33.865Z,89.49
2023-01-29T02:12:02.802Z,89.19
2023-01-29T02:14:32.489Z,89.08
2023-01-29T02:17:02.520Z,89.02
2023-01-29T02:19:46.409Z,88.80
2023-01-29T02:22:30.292Z,88.82
2023-01-29T02:25:10.819Z,89.25
2023-01-29T02:28:15.291Z,89.33
2023-01-29T02:30:49.209Z,89.46
2023-01-29T02:33:27.640Z,89.58
2023-01-29T02:36:06.137Z,89.65
2023-01-29T02:38:42.035Z,89.25
2023-01-29T02:41:16.800Z,88.99
2023-01-29T02:43:49.442Z,89.16
2023-01-29T02:46:24.248Z,88.96
2023-01-29T02:49:00.560Z,89.17
2023-01-29T02:51:35.561Z,89.14
2023-01-29T02:54:09.743Z,89.30
2023-01-29T02:56:47.687Z,89.36
2023-01-29T02:59:27.163Z,89.34
2023-01-29T03:01:59.788Z,88.46
2023-01-29T03:04:32.299Z,88.52
2023-01-29T03:07:04.730Z,88.66
2023-01-29T03:09:37.973Z,88.62
2023-01-29T03:12:20.180Z,88.28
2023-01-29T03:15:09.659Z,88.67
2023-01-29T03:17:43.584Z,88.60
2023-01-29T03:20:17.652Z,87.80
2023-01-29T03:22:50.924Z,87.35
2023-01-29T03:25:39.322Z,86.57
2023-01-29T03:28:27.940Z,87.23
2023-01-29T03:31:21.379Z,85.51
2023-01-29T03:34:06.397Z,85.93
2023-01-29T03:36:39.949Z,86.11
2023-01-29T03:39:11.533Z,84.78
2023-01-29T03:41:47.787Z,84.22
2023-01-29T03:44:17.354Z,83.65
2023-01-29T03:46:53.924Z,83.56
2023-01-29T03:49:31.514Z,83.79
2023-01-29T03:52:06.122Z,82.57
2023-01-29T03:54:41.758Z,82.70
2023-01-29T03:57:17.288Z,82.58
2023-01-29T03:59:54.648Z,82.29
2023-01-29T04:02:48.988Z,82.64
2023-01-29T04:05:22.217Z,81.92
2023-01-29T04:08:10.828Z,82.50
2023-01-29T04:10:41.885Z,82.70
2023-01-29T04:13:13.857Z,82.64
2023-01-29T04:15:50.659Z,82.99
2023-01-29T04:18:25.324Z,83.09
2023-01-29T04:21:08.758Z,83.49
2023-01-29T04:23:37.433Z,83.24
2023-01-29T04:26:23.071Z,83.60
2023-01-29T04:29:03.743Z,83.85
2023-01-29T04:31:39.279Z,84.26
2023-01-29T04:34:22.664Z,84.41
2023-01-29T04:37:02.957Z,84.74
2023-01-29T04:39:38.911Z,84.97
2023-01-29T04:42:14.265Z,84.53
2023-01-29T04:44:51.136Z,84.62
2023-01-29T04:47:27.245Z,84.60
2023-01-29T04:50:04.195Z,84.76
2023-01-29T04:52:47.117Z,84.66
2023-01-29T04:55:21.811Z,85.04
2023-01-29T04:57:55.836Z,84.76
2023-01-29T05:00:29.378Z,84.55
2023-01-29T05:02:58.318Z,84.95
2023-01-29T05:05:29.246Z,84.90
2023-01-29T05:07:59.534Z,85.04
2023-01-29T05:10:28.027Z,85.01
2023-01-29T05:13:01.729Z,84.91
2023-01-29T05:15:38.335Z,84.76
2023-01-29T05:18:09.199Z,84.58
2023-01-29T05:20:41.379Z,84.40
2023-01-29T05:23:12.094Z,84.61
2023-01-29T05:25:40.541Z,84.91
2023-01-29T05:28:16.335Z,85.02
2023-01-29T05:30:46.214Z,85.02
2023-01-29T05:33:16.511Z,84.77
2023-01-29T05:35:46.247Z,84.75
2023-01-29T05:38:14.663Z,85.16
2023-01-29T05:40:43.248Z,85.11
2023-01-29T05:43:16.731Z,84.88
2023-01-29T05:45:45.037Z,84.94
2023-01-29T05:48:13.144Z,84.84
2023-01-29T05:50:41.253Z,84.82
2023-01-29T05:53:11.450Z,85.07
2023-01-29T05:55:39.565Z,85.24
2023-01-29T05:58:07.797Z,84.63
2023-01-29T06:00:35.988Z,84.87
2023-01-29T06:03:04.277Z,84.95
2023-01-29T06:05:32.740Z,84.10
2023-01-29T06:08:00.985Z,84.63
2023-01-29T06:10:36.886Z,84.88
2023-01-29T06:13:05.150Z,84.90
2023-01-29T06:15:33.370Z,85.37
2023-01-29T06:18:01.638Z,84.52
2023-01-29T06:20:29.722Z,84.34
2023-01-29T06:22:57.858Z,84.80
2023-01-29T06:25:26.043Z,84.76
2023-01-29T06:27:58.384Z,83.78
2023-01-29T06:30:28.381Z,83.92
2023-01-29T06:32:58.845Z,84.12
2023-01-29T06:35:27.239Z,84.17
2023-01-29T06:37:55.537Z,83.88
2023-01-29T06:40:23.671Z,83.16
2023-01-29T06:42:51.847Z,83.26
2023-01-29T06:45:21.548Z,82.94
2023-01-29T06:47:49.720Z,83.21
2023-01-29T06:50:18.624Z,82.66
2023-01-29T06:52:46.960Z,82.56
2023-01-29T06:55:15.358Z,83.23
2023-01-29T06:57:43.770Z,82.77
2023-01-29T07:00:13.425Z,82.81
2023-01-29T07:02:43.038Z,81.71
2023-01-29T07:05:11.211Z,82.60
2023-01-29T07:07:39.387Z,82.42
2023-01-29T07:10:08.708Z,82.28
2023-01-29T07:12:36.863Z,82.64
2023-01-29T07:15:05.658Z,82.71
2023-01-29T07:17:39.899Z,82.51
2023-01-29T07:20:11.230Z,82.08
2023-01-29T07:22:39.376Z,82.69
2023-01-29T07:25:09.099Z,82.52
2023-01-29T07:27:39.269Z,81.47
2023-01-29T07:30:09.030Z,82.06
2023-01-29T07:32:37.235Z,82.24
2023-01-29T07:35:05.910Z,81.69
2023-01-29T07:37:35.614Z,81.56
2023-01-29T07:40:10.588Z,82.42
2023-01-29T07:42:40.179Z,81.86
2023-01-29T07:45:09.614Z,82.10
2023-01-29T07:47:38.123Z,81.89
2023-01-29T07:50:07.249Z,81.30
2023-01-29T07:52:36.936Z,81.16
2023-01-29T07:55:05.464Z,81.34
2023-01-29T07:57:33.791Z,80.50
2023-01-29T08:00:02.215Z,81.12
2023-01-29T08:02:40.550Z,81.48
2023-01-29T08:05:09.788Z,81.47
2023-01-29T08:07:39.613Z,81.31
2023-01-29T08:10:08.230Z,81.54
2023-01-29T08:12:36.524Z,81.09
2023-01-29T08:15:07.446Z,80.82
2023-01-29T08:17:41.323Z,80.94
2023-01-29T08:20:18.060Z,80.41
2023-01-29T08:22:48.162Z,80.59
2023-01-29T08:25:17.152Z,80.58
2023-01-29T08:27:45.451Z,80.53
2023-01-29T08:30:14.405Z,80.31
2023-01-29T08:32:42.708Z,80.77
2023-01-29T08:35:11.164Z,79.97
2023-01-29T08:37:39.332Z,79.27
2023-01-29T08:40:12.356Z,79.58
2023-01-29T08:42:41.518Z,78.74
2023-01-29T08:45:10.981Z,79.16
2023-01-29T08:47:39.214Z,79.28
2023-01-29T08:50:08.754Z,79.01
2023-01-29T08:52:36.938Z,78.32
2023-01-29T08:55:05.420Z,78.38
2023-01-29T08:57:35.005Z,77.91
2023-01-29T09:00:06.454Z,78.72
2023-01-29T09:02:34.693Z,78.02
2023-01-29T09:05:07.168Z,78.17
2023-01-29T09:07:35.698Z,78.49
2023-01-29T09:10:04.555Z,77.76
2023-01-29T09:12:34.132Z,77.96
2023-01-29T09:15:02.364Z,78.15
2023-01-29T09:17:30.535Z,78.48
2023-01-29T09:19:58.944Z,77.90
2023-01-29T09:22:27.272Z,78.44
2023-01-29T09:24:55.471Z,78.49
2023-01-29T09:27:23.661Z,78.14
2023-01-29T09:29:53.417Z,77.81
2023-01-29T09:32:49.815Z,77.98
2023-01-29T09:35:10.932Z,77.33
2023-01-29T09:37:39.317Z,77.37
2023-01-29T09:40:09.288Z,77.47
2023-01-29T09:42:42.213Z,77.16
2023-01-29T09:45:17.814Z,77.60
2023-01-29T09:47:46.323Z,77.46
2023-01-29T09:50:20.372Z,76.71
2023-01-29T09:52:54.052Z,77.59
2023-01-29T09:55:26.310Z,76.38
2023-01-29T09:57:57.846Z,77.09
2023-01-29T10:00:35.330Z,76.95
2023-01-29T10:03:23.037Z,76.58
2023-01-29T10:06:20.230Z,76.00
2023-01-29T10:09:23.833Z,76.26
2023-01-29T10:12:05.314Z,76.07
2023-01-29T10:14:43.743Z,75.70
2023-01-29T10:17:30.659Z,76.51
2023-01-29T10:20:32.545Z,76.58
2023-01-29T10:23:10.935Z,76.50
2023-01-29T10:25:42.326Z,76.01
2023-01-29T10:28:18.914Z,75.62
2023-01-29T10:30:50.663Z,76.23
2023-01-29T10:33:36.160Z,76.36
2023-01-29T10:36:17.052Z,74.23
2023-01-29T10:38:46.973Z,74.95
2023-01-29T10:41:32.065Z,74.03
2023-01-29T10:44:16.653Z,74.05
2023-01-29T10:47:03.568Z,74.51
2023-01-29T10:49:47.065Z,74.32
2023-01-29T10:52:27.857Z,72.72
2023-01-29T10:55:05.837Z,72.54
2023-01-29T10:57:47.497Z,73.72
2023-01-29T11:00:23.140Z,72.66
2023-01-29T11:02:53.243Z,71.20
2023-01-29T11:05:28.007Z,71.71
2023-01-29T11:08:08.338Z,70.76
2023-01-29T11:10:42.999Z,71.19
2023-01-29T11:13:16.339Z,71.72
2023-01-29T11:15:45.556Z,71.89
2023-01-29T11:18:17.995Z,71.90
2023-01-29T11:21:02.284Z,71.61
2023-01-29T11:23:33.497Z,71.66
2023-01-29T11:26:04.807Z,72.36
2023-01-29T11:28:40.883Z,71.47
2023-01-29T11:31:23.518Z,71.81
2023-01-29T11:33:55.360Z,71.97
2023-01-29T11:36:34.071Z,72.76
2023-01-29T11:39:24.132Z,70.65
2023-01-29T11:41:57.887Z,71.10
2023-01-29T11:44:30.589Z,70.71
2023-01-29T11:47:11.687Z,70.56
2023-01-29T11:49:43.520Z,69.76
2023-01-29T11:52:16.247Z,68.91
2023-01-29T11:54:49.308Z,69.58
2023-01-29T11:57:29.348Z,69.60
2023-01-29T12:00:01.709Z,67.40
2023-01-29T12:02:39.854Z,67.46
2023-01-29T12:05:17.172Z,67.48
2023-01-29T12:07:49.177Z,67.57
2023-01-29T12:10:33.750Z,66.18
2023-01-29T12:13:19.918Z,65.94
2023-01-29T12:15:50.000Z,65.38
2023-01-29T12:18:25.139Z,66.11
2023-01-29T12:20:57.969Z,65.90
2023-01-29T12:23:38.320Z,66.05
2023-01-29T12:26:11.026Z,65.71
2023-01-29T12:28:47.362Z,66.58
2023-01-29T12:31:28.574Z,65.04
2023-01-29T12:34:04.449Z,66.01
2023-01-29T12:36:39.735Z,66.59
2023-01-29T12:39:12.082Z,66.62
2023-01-29T12:41:46.128Z,67.06
2023-01-29T12:44:20.794Z,67.51
2023-01-29T12:46:54.506Z,67.30
2023-01-29T12:49:26.488Z,67.97
2023-01-29T12:52:00.005Z,67.20
2023-01-29T12:54:38.853Z,67.65
2023-01-29T12:57:15.918Z,67.38
2023-01-29T12:59:48.844Z,66.71
2023-01-29T13:02:32.081Z,68.39
2023-01-29T13:05:07.432Z,66.88
2023-01-29T13:07:46.262Z,66.45
2023-01-29T13:10:21.711Z,66.71
2023-01-29T13:12:55.855Z,67.04
2023-01-29T13:15:28.814Z,66.25
2023-01-29T13:18:03.651Z,65.50
2023-01-29T13:20:36.312Z,65.13
2023-01-29T13:23:16.735Z,65.16
2023-01-29T13:25:46.915Z,64.07
2023-01-29T13:28:21.029Z,64.04
2023-01-29T13:31:13.257Z,63.15
2023-01-29T13:33:43.227Z,63.23
2023-01-29T13:36:27.565Z,63.37
2023-01-29T13:39:03.315Z,64.95
2023-01-29T13:41:42.803Z,63.97
2023-01-29T13:44:22.370Z,65.22
2023-01-29T13:46:58.919Z,64.79
2023-01-29T13:49:34.521Z,64.37
2023-01-29T13:52:19.037Z,66.06
2023-01-29T13:54:58.960Z,65.04
2023-01-29T13:57:50.262Z,64.98
2023-01-29T14:01:01.645Z,64.63
2023-01-29T14:04:05.597Z,65.27
2023-01-29T14:06:46.941Z,66.20
2023-01-29T14:10:03.481Z,67.35
2023-01-29T14:12:45.557Z,67.21
2023-01-29T14:15:22.940Z,68.45
2023-01-29T14:18:19.642Z,68.25
2023-01-29T14:21:00.100Z,68.22
2023-01-29T14:23:37.303Z,69.38
2023-01-29T14:26:20.104Z,70.42
2023-01-29T14:28:59.579Z,69.63
2023-01-29T14:31:33.367Z,70.11
2023-01-29T14:34:04.239Z,69.99
2023-01-29T14:36:41.555Z,69.67
2023-01-29T14:39:25.613Z,70.20
2023-01-29T14:41:55.049Z,70.77
2023-01-29T14:44:57.188Z,71.19
2023-01-29T14:47:57.153Z,70.77
2023-01-29T14:50:48.762Z,69.72
2023-01-29T14:53:23.273Z,70.77
2023-01-29T14:55:57.635Z,71.32
2023-01-29T14:58:35.381Z,70.55
2023-01-29T15:01:09.180Z,70.99
2023-01-29T15:03:44.931Z,72.64
2023-01-29T15:06:19.762Z,72.14
2023-01-29T15:08:54.718Z,71.11
2023-01-29T15:11:37.228Z,70.39
2023-01-29T15:14:32.325Z,70.54
2023-01-29T15:17:18.281Z,71.34
2023-01-29T15:19:49.570Z,71.86
2023-01-29T15:22:21.097Z,71.37
2023-01-29T15:25:04.495Z,72.55
2023-01-29T15:27:33.301Z,72.30
2023-01-29T15:30:04.929Z,72.32
2023-01-29T15:32:37.927Z,71.60
2023-01-29T15:35:11.654Z,72.74
2023-01-29T15:37:41.654Z,73.21
2023-01-29T15:40:19.376Z,73.49
2023-01-29T15:42:49.578Z,72.98
2023-01-29T15:45:28.559Z,73.25
2023-01-29T15:48:02.889Z,73.82
2023-01-29T15:50:33.252Z,74.32
2023-01-29T15:53:05.380Z,74.67
2023-01-29T15:55:35.763Z,74.80
2023-01-29T15:58:05.841Z,74.74
2023-01-29T16:00:37.091Z,75.09
2023-01-29T16:03:19.499Z,75.02
2023-01-29T16:05:48.687Z,75.12
2023-01-29T16:08:18.475Z,75.09
2023-01-29T16:10:52.593Z,75.84
2023-01-29T16:13:23.759Z,75.84
2023-01-29T16:15:58.182Z,76.14
2023-01-29T16:18:35.248Z,75.72
2023-01-29T16:21:09.838Z,75.49
2023-01-29T16:23:45.809Z,75.88
2023-01-29T16:26:18.291Z,75.62
2023-01-29T16:28:48.908Z,75.51
2023-01-29T16:31:26.458Z,75.91
2023-01-29T16:34:00.628Z,76.48
2023-01-29T16:36:30.594Z,77.08
2023-01-29T16:39:05.823Z,77.57
2023-01-29T16:41:38.877Z,77.52
2023-01-29T16:44:33.783Z,77.27
2023-01-29T16:47:15.893Z,77.20
2023-01-29T16:49:54.197Z,76.78
2023-01-29T16:52:26.771Z,76.33
2023-01-29T16:55:02.856Z,76.17
2023-01-29T16:57:35.131Z,76.65
2023-01-29T17:00:11.664Z,77.41
2023-01-29T17:02:42.363Z,76.96
2023-01-29T17:05:23.951Z,76.13
2023-01-29T17:07:54.246Z,76.54
2023-01-29T17:10:24.008Z,75.80
2023-01-29T17:12:58.039Z,75.60
2023-01-29T17:15:37.356Z,75.73
2023-01-29T17:18:18.883Z,75.83
2023-01-29T17:20:51.688Z,75.54
2023-01-29T17:23:24.963Z,76.00
2023-01-29T17:25:54.527Z,76.05
2023-01-29T17:28:24.895Z,75.69
2023-01-29T17:31:05.893Z,75.61
2023-01-29T17:33:37.860Z,75.70
2023-01-29T17:36:17.463Z,76.60
2023-01-29T17:38:47.728Z,77.27
2023-01-29T17:41:26.837Z,76.25
2023-01-29T17:43:56.614Z,76.08
2023-01-29T17:46:27.653Z,75.57
2023-01-29T17:48:59.991Z,75.63
2023-01-29T17:51:31.913Z,75.91
2023-01-29T17:54:03.563Z,76.35
2023-01-29T17:56:35.242Z,76.99
2023-01-29T17:59:10.736Z,76.91
2023-01-29T18:01:40.302Z,76.48
2023-01-29T18:04:09.450Z,76.53
2023-01-29T18:06:43.932Z,76.87
2023-01-29T18:09:15.806Z,77.73
2023-01-29T18:11:46.585Z,78.11
2023-01-29T18:14:20.096Z,77.67
2023-01-29T18:16:50.975Z,77.67
2023-01-29T18:19:28.876Z,78.01
2023-01-29T18:21:59.734Z,78.43
2023-01-29T18:24:32.417Z,77.59
2023-01-29T18:27:02.241Z,77.46
2023-01-29T18:29:33.978Z,77.74
2023-01-29T18:32:04.133Z,77.14
2023-01-29T18:34:34.473Z,78.14
2023-01-29T18:37:05.467Z,77.78
2023-01-29T18:39:35.204Z,76.86
2023-01-29T18:42:05.010Z,77.70
2023-01-29T18:44:36.363Z,78.61
2023-01-29T18:47:10.589Z,77.55
2023-01-29T18:49:40.975Z,77.53
2023-01-29T18:52:12.355Z,77.59
2023-01-29T18:54:41.836Z,78.11
2023-01-29T18:57:15.942Z,78.17
2023-01-29T19:00:01.658Z,77.94
2023-01-29T19:02:33.119Z,78.86
2023-01-29T19:05:03.213Z,78.37
2023-01-29T19:07:35.360Z,78.56
2023-01-29T19:10:07.399Z,78.15
2023-01-29T19:12:41.928Z,77.95
2023-01-29T19:15:13.202Z,77.78
2023-01-29T19:17:43.424Z,78.18
2023-01-29T19:20:14.073Z,78.99
2023-01-29T19:22:46.141Z,79.28
2023-01-29T19:25:16.989Z,79.95
2023-01-29T19:27:48.323Z,80.33
2023-01-29T19:30:20.469Z,81.14
2023-01-29T19:32:50.092Z,80.83
2023-01-29T19:35:20.600Z,81.18
2023-01-29T19:37:54.111Z,81.27
2023-01-29T19:40:25.047Z,82.24
2023-01-29T19:42:57.152Z,81.37
2023-01-29T19:45:49.706Z,80.74
2023-01-29T19:48:20.949Z,81.81
2023-01-29T19:50:54.244Z,81.66
2023-01-29T19:53:27.026Z,81.47
2023-01-29T19:56:01.018Z,81.51
2023-01-29T19:58:36.211Z,81.31
2023-01-29T20:01:08.615Z,80.62
2023-01-29T20:03:40.061Z,80.78
2023-01-29T20:06:14.838Z,80.97
2023-01-29T20:08:48.487Z,80.78
2023-01-29T20:11:19.215Z,81.02
2023-01-29T20:13:50.331Z,81.02
2023-01-29T20:16:21.199Z,81.37
2023-01-29T20:18:51.083Z,80.69
2023-01-29T20:21:23.948Z,80.37
2023-01-29T20:23:57.113Z,80.84
2023-01-29T20:26:27.956Z,80.85
2023-01-29T20:29:01.651Z,80.81
2023-01-29T20:31:33.483Z,80.73
2023-01-29T20:34:06.557Z,80.57
2023-01-29T20:36:36.668Z,80.70
2023-01-29T20:39:12.537Z,80.36
2023-01-29T20:41:42.758Z,80.23
2023-01-29T20:44:16.653Z,80.11
2023-01-29T20:46:47.009Z,80.25
2023-01-29T20:49:18.510Z,80.52
2023-01-29T20:51:48.953Z,81.54
2023-01-29T20:54:22.037Z,80.69
2023-01-29T20:56:51.450Z,80.51
2023-01-29T20:59:21.885Z,80.83
2023-01-29T21:01:52.039Z,81.07
2023-01-29T21:04:22.246Z,81.15
2023-01-29T21:06:52.895Z,81.81
2023-01-29T21:09:24.565Z,80.93
2023-01-29T21:11:56.567Z,81.24
2023-01-29T21:14:26.116Z,81.15
2023-01-29T21:16:56.363Z,81.56
2023-01-29T21:19:28.478Z,81.99
2023-01-29T21:21:58.370Z,82.36
2023-01-29T21:24:29.560Z,81.57
2023-01-29T21:26:59.782Z,80.77
2023-01-29T21:29:28.709Z,80.99
2023-01-29T21:31:58.454Z,81.33
2023-01-29T21:34:27.881Z,81.80
2023-01-29T21:36:56.271Z,81.80
2023-01-29T21:39:26.532Z,81.68
2023-01-29T21:42:14.092Z,82.45
2023-01-29T21:44:42.467Z,83.14
2023-01-29T21:47:13.877Z,83.23
2023-01-29T21:49:43.427Z,83.34
2023-01-29T21:52:14.491Z,84.28
2023-01-29T21:54:49.111Z,83.97
2023-01-29T21:57:19.155Z,84.61
2023-01-29T21:59:53.079Z,84.79
2023-01-29T22:02:22.750Z,85.26
2023-01-29T22:04:52.403Z,84.71
2023-01-29T22:07:20.805Z,83.38
2023-01-29T22:09:49.173Z,83.33
2023-01-29T22:12:18.773Z,84.04
2023-01-29T22:14:48.985Z,84.14
2023-01-29T22:17:22.649Z,84.53
2023-01-29T22:19:56.899Z,84.65
2023-01-29T22:22:29.204Z,84.17
2023-01-29T22:25:01.659Z,84.28
2023-01-29T22:27:33.343Z,84.93
2023-01-29T22:30:03.220Z,85.29
2023-01-29T22:33:04.382Z,85.41
2023-01-29T22:35:33.983Z,84.88
2023-01-29T22:38:05.985Z,85.32
2023-01-29T22:40:38.322Z,84.68
2023-01-29T22:43:11.548Z,83.62
2023-01-29T22:45:41.136Z,83.47
2023-01-29T22:48:13.236Z,83.61
2023-01-29T22:50:53.123Z,83.22
2023-01-29T22:53:21.561Z,83.33
2023-01-29T22:55:55.864Z,82.98
2023-01-29T22:58:25.689Z,83.55
2023-01-29T23:00:57.138Z,83.18
2023-01-29T23:04:00.006Z,83.08
2023-01-29T23:06:28.398Z,83.78
2023-01-29T23:09:56.211Z,83.39
2023-01-29T23:12:55.237Z,82.40
2023-01-29T23:15:28.777Z,82.16
2023-01-29T23:17:57.159Z,81.60
2023-01-29T23:20:28.537Z,82.24
2023-01-29T23:22:59.890Z,82.21
2023-01-29T23:26:20.385Z,82.50
2023-01-29T23:28:49.765Z,82.51
2023-01-29T23:31:25.039Z,82.76
2023-01-29T23:33:54.286Z,82.91
2023-01-29T23:36:25.709Z,83.47
2023-01-29T23:43:33.108Z,84.40
2023-01-29T23:46:12.213Z,85.02
2023-01-29T23:48:40.614Z,84.80
2023-01-29T23:51:08.929Z,85.21
2023-01-29T23:53:42.586Z,85.44
2023-01-29T23:56:15.961Z,85.47
2023-01-29T23:58:47.298Z,85.45
